Time;durP1;ratioP1;P1;durP2;ratioP2;P2;SDS_P1;SDS_P2;PMS_P1;PMS_P2;Temp;Humidity;BMP_temperature;BMP_pressure;BME280_temperature;BME280_humidity;BME280_pressure;Samples;Min_cycle;Max_cycle;Signal;HPM_P1;HPM_P2
2023/06/07 00:00:46;;;;;;;3.83;3.53;;;21.60;50.30;;;;;;4928786;29;20463;-83
2023/06/07 00:03:14;;;;;;;3.93;3.63;;;21.60;49.90;;;;;;4934021;29;20992;-84
2023/06/07 00:05:43;;;;;;;4.03;3.20;;;21.60;49.40;;;;;;4901789;29;20991;-83
2023/06/07 00:08:10;;;;;;;3.63;3.33;;;21.60;49.50;;;;;;4921225;29;21020;-84
2023/06/07 00:10:37;;;;;;;3.43;3.20;;;21.70;49.60;;;;;;4901947;29;20443;-83
2023/06/07 00:13:05;;;;;;;4.20;3.80;;;21.70;49.60;;;;;;4915128;29;20470;-82
2023/06/07 00:15:32;;;;;;;4.67;3.57;;;21.70;49.90;;;;;;4932515;29;20481;-83
2023/06/07 00:18:00;;;;;;;5.93;4.23;;;21.60;50.00;;;;;;4929421;28;20479;-84
2023/06/07 00:20:27;;;;;;;4.20;3.80;;;21.60;50.30;;;;;;4924243;29;20819;-83
2023/06/07 00:22:56;;;;;;;4.27;3.93;;;21.60;50.10;;;;;;4920221;29;20979;-83
2023/06/07 00:25:23;;;;;;;4.10;3.73;;;21.60;50.50;;;;;;4931849;29;20811;-82
2023/06/07 00:27:50;;;;;;;6.83;3.73;;;21.60;50.70;;;;;;4920588;29;20485;-83
2023/06/07 00:30:17;;;;;;;3.90;3.60;;;21.60;50.80;;;;;;4907223;29;20490;-84
2023/06/07 00:32:44;;;;;;;4.77;4.33;;;21.60;51.20;;;;;;4920650;29;20478;-82
2023/06/07 00:35:14;;;;;;;3.90;3.60;;;21.60;51.30;;;;;;4928781;28;20469;-83
2023/06/07 00:37:42;;;;;;;4.33;4.00;;;21.60;51.40;;;;;;4915372;29;20570;-81
2023/06/07 00:40:09;;;;;;;5.13;4.63;;;21.60;51.20;;;;;;4926244;29;20883;-83
2023/06/07 00:42:36;;;;;;;3.77;3.53;;;21.70;51.30;;;;;;4909826;29;20963;-83
2023/06/07 00:45:04;;;;;;;4.67;3.40;;;21.70;51.20;;;;;;4901082;29;20466;-82
2023/06/07 00:47:31;;;;;;;3.83;3.53;;;21.70;51.10;;;;;;4927193;29;20581;-83
2023/06/07 00:49:58;;;;;;;4.27;3.87;;;21.50;50.90;;;;;;4933899;29;20454;-83
2023/06/07 00:52:27;;;;;;;4.27;3.97;;;21.50;51.10;;;;;;4936407;28;20478;-83
2023/06/07 00:54:54;;;;;;;4.20;3.90;;;21.40;51.20;;;;;;4931353;29;20453;-83
2023/06/07 00:57:21;;;;;;;4.30;3.87;;;21.30;51.40;;;;;;4920276;29;20479;-83
2023/06/07 00:59:48;;;;;;;3.80;3.50;;;21.40;51.30;;;;;;4920996;29;20979;-84
2023/06/07 01:02:15;;;;;;;6.80;3.77;;;21.50;51.60;;;;;;4921169;29;20450;-84
2023/06/07 01:04:42;;;;;;;4.60;4.10;;;21.50;51.30;;;;;;4921203;29;20457;-83
2023/06/07 01:07:11;;;;;;;3.90;3.60;;;21.60;51.50;;;;;;4908063;29;20475;-83
2023/06/07 01:09:42;;;;;;;4.00;3.70;;;21.50;51.30;;;;;;4917686;29;20929;-83
2023/06/07 01:12:14;;;;;;;5.00;4.17;;;21.40;51.30;;;;;;4910660;29;20463;-84
2023/06/07 01:14:42;;;;;;;4.70;4.30;;;21.50;51.50;;;;;;4941731;29;20986;-83
2023/06/07 01:17:12;;;;;;;8.00;4.20;;;21.50;51.80;;;;;;4935834;28;20471;-82
2023/06/07 01:19:42;;;;;;;5.03;4.57;;;21.40;51.70;;;;;;4921191;29;20442;-83
2023/06/07 01:22:11;;;;;;;4.10;3.80;;;21.40;51.70;;;;;;4925870;29;20487;-82
2023/06/07 01:24:42;;;;;;;4.33;4.03;;;21.50;51.60;;;;;;4910232;29;20457;-82
2023/06/07 01:27:11;;;;;;;4.60;4.20;;;21.30;51.80;;;;;;4924197;29;20509;-83
2023/06/07 01:29:39;;;;;;;4.80;4.40;;;21.30;52.00;;;;;;4941792;29;20976;-84
2023/06/07 01:32:09;;;;;;;5.10;3.70;;;21.30;52.10;;;;;;4900969;29;20528;-83
2023/06/07 01:34:36;;;;;;;4.60;4.20;;;21.30;51.90;;;;;;4907698;29;20521;-83
2023/06/07 01:37:03;;;;;;;4.37;3.97;;;21.20;52.00;;;;;;4917527;29;20478;-82
2023/06/07 01:39:32;;;;;;;5.00;4.60;;;21.20;52.40;;;;;;4924734;29;20454;-83
2023/06/07 01:42:02;;;;;;;4.10;3.70;;;21.30;52.20;;;;;;4923628;29;20536;-83
2023/06/07 01:44:30;;;;;;;5.77;4.00;;;21.30;52.20;;;;;;4909127;29;20451;-84
2023/06/07 01:46:57;;;;;;;4.30;3.90;;;21.30;52.20;;;;;;4922050;29;20483;-83
2023/06/07 01:49:24;;;;;;;4.93;4.47;;;21.30;52.00;;;;;;4920417;28;21199;-83
2023/06/07 01:51:51;;;;;;;4.83;4.40;;;21.30;51.80;;;;;;4917738;29;20474;-83
2023/06/07 01:54:18;;;;;;;4.83;4.43;;;21.30;51.80;;;;;;4905814;29;20472;-83
2023/06/07 01:57:04;;;;;;;4.83;3.87;;;21.30;51.90;;;;;;4918722;29;21321;-83
2023/06/07 01:59:42;;;;;;;4.67;4.23;;;21.30;51.70;;;;;;4920944;29;20461;-83
2023/06/07 02:02:16;;;;;;;5.00;4.60;;;21.30;51.70;;;;;;4924532;29;20874;-84
2023/06/07 02:04:45;;;;;;;4.63;4.23;;;21.30;51.60;;;;;;4923965;29;20455;-82
2023/06/07 02:07:18;;;;;;;4.77;3.90;;;21.30;51.60;;;;;;4933579;29;20478;-83
2023/06/07 02:09:48;;;;;;;7.50;4.60;;;21.40;51.70;;;;;;4941918;28;20843;-83
2023/06/07 02:12:16;;;;;;;4.63;3.90;;;21.30;51.70;;;;;;4912789;29;20462;-83
2023/06/07 02:14:45;;;;;;;5.60;4.57;;;21.20;51.80;;;;;;4917280;29;20822;-81
2023/06/07 02:17:13;;;;;;;5.20;4.50;;;21.20;52.00;;;;;;4940603;28;20481;-83
2023/06/07 02:19:39;;;;;;;4.60;4.07;;;21.20;52.00;;;;;;4937929;29;20460;-84
2023/06/07 02:22:07;;;;;;;4.40;4.07;;;21.20;52.20;;;;;;4912785;29;20502;-83
2023/06/07 02:24:34;;;;;;;4.80;4.40;;;21.20;52.20;;;;;;4933565;29;20458;-83
2023/06/07 02:27:03;;;;;;;5.37;4.63;;;21.10;52.20;;;;;;4916046;29;20470;-82
2023/06/07 02:29:30;;;;;;;4.47;4.07;;;21.00;52.50;;;;;;4933516;29;20461;-84
2023/06/07 02:32:00;;;;;;;5.30;4.40;;;21.00;52.40;;;;;;4917558;29;21116;-83
2023/06/07 02:34:29;;;;;;;5.03;4.63;;;21.00;52.40;;;;;;4918377;29;20952;-83
2023/06/07 02:36:58;;;;;;;4.43;3.97;;;21.00;52.70;;;;;;4900553;29;20482;-83
2023/06/07 02:39:24;;;;;;;5.10;4.70;;;20.80;53.00;;;;;;4904022;29;20517;-83
2023/06/07 02:41:51;;;;;;;4.93;4.53;;;20.70;53.10;;;;;;4922330;29;20447;-83
2023/06/07 02:44:18;;;;;;;4.47;3.90;;;20.70;53.20;;;;;;4934747;29;20442;-82
2023/06/07 02:46:45;;;;;;;5.57;5.07;;;20.80;52.90;;;;;;4917723;29;20482;-82
2023/06/07 02:49:13;;;;;;;4.47;4.13;;;20.80;52.70;;;;;;4939570;29;20450;-83
2023/06/07 02:51:42;;;;;;;5.70;5.23;;;20.90;52.60;;;;;;4917461;29;20465;-83
2023/06/07 02:54:10;;;;;;;5.10;4.60;;;20.90;52.70;;;;;;4902272;29;20458;-83
2023/06/07 02:56:38;;;;;;;6.57;4.97;;;21.00;52.70;;;;;;4909719;29;20490;-84
2023/06/07 02:59:05;;;;;;;4.60;4.20;;;21.00;52.30;;;;;;4906648;29;20551;-84
2023/06/07 03:01:37;;;;;;;4.40;4.00;;;21.00;52.30;;;;;;4925171;29;21006;-83
2023/06/07 03:04:05;;;;;;;4.77;4.43;;;21.00;52.50;;;;;;4929535;29;21418;-84
2023/06/07 03:06:33;;;;;;;4.87;4.47;;;21.00;52.40;;;;;;4939972;28;20466;-83
2023/06/07 03:09:09;;;;;;;5.13;4.67;;;20.90;52.60;;;;;;4903094;29;20442;-83
2023/06/07 03:11:38;;;;;;;4.83;4.30;;;20.90;52.60;;;;;;4931674;29;20448;-84
2023/06/07 03:14:05;;;;;;;5.00;4.50;;;20.90;52.60;;;;;;4905684;29;20508;-83
2023/06/07 03:16:39;;;;;;;5.27;4.77;;;20.90;52.60;;;;;;4932923;28;20463;-83
2023/06/07 03:19:07;;;;;;;4.43;4.13;;;20.80;52.80;;;;;;4932224;29;20465;-83
2023/06/07 03:21:35;;;;;;;5.40;4.90;;;20.80;53.00;;;;;;4917727;29;20462;-84
2023/06/07 03:24:06;;;;;;;4.70;4.30;;;20.80;52.70;;;;;;4921332;29;20466;-84
2023/06/07 03:26:33;;;;;;;4.73;4.33;;;20.80;52.80;;;;;;4898830;29;20485;-83
2023/06/07 03:29:02;;;;;;;4.87;4.30;;;20.80;52.60;;;;;;4906473;29;20454;-83
2023/06/07 03:31:33;;;;;;;4.63;4.23;;;20.70;52.40;;;;;;4927408;29;20454;-84
2023/06/07 03:34:05;;;;;;;4.87;4.27;;;20.60;52.80;;;;;;4921783;29;20490;-84
2023/06/07 03:36:35;;;;;;;4.83;4.43;;;20.60;53.30;;;;;;4908478;29;20542;-84
2023/06/07 03:39:02;;;;;;;4.50;4.10;;;20.60;53.10;;;;;;4917216;29;20544;-83
2023/06/07 03:41:30;;;;;;;4.77;4.37;;;20.60;53.10;;;;;;4919528;29;20498;-83
2023/06/07 03:44:00;;;;;;;5.03;4.60;;;20.60;53.20;;;;;;4907277;29;20976;-82
2023/06/07 03:46:28;;;;;;;5.80;4.60;;;20.50;53.00;;;;;;4918484;29;20500;-83
2023/06/07 03:48:55;;;;;;;4.63;4.23;;;20.50;53.10;;;;;;4938094;29;20545;-83
2023/06/07 03:51:23;;;;;;;5.30;4.57;;;20.50;53.20;;;;;;4918205;29;20553;-83
2023/06/07 03:53:52;;;;;;;4.70;4.30;;;20.50;53.30;;;;;;4923831;29;20532;-82
2023/06/07 03:56:21;;;;;;;5.97;4.80;;;20.60;53.40;;;;;;4918904;29;20478;-84
2023/06/07 03:58:50;;;;;;;5.60;5.00;;;20.40;53.30;;;;;;4930314;28;20540;-83
2023/06/07 04:01:21;;;;;;;4.70;4.30;;;20.40;53.20;;;;;;4943054;28;20533;-83
2023/06/07 04:03:48;;;;;;;5.23;4.73;;;20.40;53.00;;;;;;4904998;29;20823;-82
2023/06/07 04:06:16;;;;;;;5.27;4.30;;;20.50;53.20;;;;;;4914146;28;20480;-84
2023/06/07 04:08:45;;;;;;;6.10;4.97;;;20.50;52.70;;;;;;4906893;29;20467;-82
2023/06/07 04:11:13;;;;;;;6.53;4.67;;;20.50;53.20;;;;;;4916936;29;21119;-82
2023/06/07 04:13:42;;;;;;;4.40;4.07;;;20.50;53.10;;;;;;4903006;29;20887;-83
2023/06/07 04:16:09;;;;;;;5.00;4.43;;;20.60;52.90;;;;;;4925690;28;20893;-83
2023/06/07 04:18:36;;;;;;;4.67;4.27;;;20.40;53.20;;;;;;4940447;29;20454;-83
2023/06/07 04:21:05;;;;;;;5.93;5.43;;;20.20;54.30;;;;;;4901475;29;20534;-83
2023/06/07 04:23:32;;;;;;;6.30;4.73;;;20.40;53.70;;;;;;4944420;29;20454;-83
2023/06/07 04:26:00;;;;;;;5.23;4.83;;;20.50;53.60;;;;;;4908396;29;20481;-83
2023/06/07 04:28:30;;;;;;;4.83;4.40;;;20.60;53.30;;;;;;4918167;29;20454;-82
2023/06/07 04:31:00;;;;;;;6.03;5.03;;;20.30;53.80;;;;;;4915664;29;20454;-84
2023/06/07 04:33:28;;;;;;;9.00;4.73;;;20.40;53.80;;;;;;4916794;29;20580;-83
2023/06/07 04:35:57;;;;;;;8.30;5.67;;;20.50;53.70;;;;;;4919454;29;20477;-82
2023/06/07 04:38:25;;;;;;;4.73;4.17;;;20.70;53.40;;;;;;4907730;29;20538;-81
2023/06/07 04:41:00;;;;;;;6.20;4.73;;;20.60;53.50;;;;;;4918872;29;20818;-82
2023/06/07 04:43:36;;;;;;;5.10;4.60;;;20.70;53.50;;;;;;4920562;29;20505;-83
2023/06/07 04:46:04;;;;;;;5.07;4.57;;;20.40;53.60;;;;;;4918164;28;20466;-82
2023/06/07 04:48:32;;;;;;;13.63;5.07;;;20.40;53.60;;;;;;4935127;29;20461;-82
2023/06/07 04:51:04;;;;;;;5.13;4.60;;;20.30;54.00;;;;;;4907468;29;20912;-83
2023/06/07 04:53:35;;;;;;;4.80;4.40;;;20.40;53.90;;;;;;4899363;29;20489;-83
2023/06/07 04:56:04;;;;;;;6.23;4.60;;;20.40;53.70;;;;;;4930062;28;20454;-82
2023/06/07 04:58:32;;;;;;;4.00;3.70;;;20.50;53.50;;;;;;4924137;29;20455;-82
2023/06/07 05:01:04;;;;;;;6.67;4.60;;;20.70;53.50;;;;;;4906191;29;20979;-82
2023/06/07 05:03:33;;;;;;;9.07;4.97;;;20.60;53.30;;;;;;4914840;29;20454;-83
2023/06/07 05:06:02;;;;;;;10.10;4.93;;;20.60;53.30;;;;;;4932350;29;20450;-82
2023/06/07 05:08:31;;;;;;;5.23;4.83;;;20.60;53.00;;;;;;4930375;28;20462;-82
2023/06/07 05:10:58;;;;;;;6.10;5.03;;;20.70;52.90;;;;;;4921551;29;20457;-82
2023/06/07 05:13:25;;;;;;;5.70;5.10;;;20.70;53.00;;;;;;4923787;29;20508;-82
2023/06/07 05:15:55;;;;;;;5.10;4.70;;;20.80;52.70;;;;;;4915968;28;20473;-82
2023/06/07 05:18:24;;;;;;;4.93;4.53;;;21.00;52.60;;;;;;4940592;28;20463;-82
2023/06/07 05:20:53;;;;;;;5.30;4.70;;;21.00;52.60;;;;;;4922729;29;20488;-82
2023/06/07 05:23:21;;;;;;;5.33;4.93;;;20.70;53.00;;;;;;4901695;29;20893;-82
2023/06/07 05:25:51;;;;;;;5.40;4.90;;;20.60;53.30;;;;;;4915313;29;20461;-82
2023/06/07 05:28:19;;;;;;;5.40;4.90;;;20.70;53.20;;;;;;4938674;29;20461;-82
2023/06/07 05:30:51;;;;;;;6.20;5.53;;;20.90;53.20;;;;;;4937747;29;20457;-82
2023/06/07 05:33:19;;;;;;;4.83;4.43;;;20.80;53.00;;;;;;4900680;29;20506;-83
2023/06/07 05:35:47;;;;;;;6.93;4.80;;;20.70;53.60;;;;;;4905356;29;20483;-82
2023/06/07 05:38:17;;;;;;;6.87;5.50;;;20.70;53.80;;;;;;4914735;29;20471;-83
2023/06/07 05:40:44;;;;;;;5.70;5.20;;;20.90;53.40;;;;;;4929962;28;20498;-84
2023/06/07 05:43:10;;;;;;;5.50;5.00;;;21.00;53.10;;;;;;4931236;29;20975;-83
2023/06/07 05:45:40;;;;;;;5.57;5.10;;;21.00;52.80;;;;;;4918968;29;20459;-82
2023/06/07 05:48:07;;;;;;;5.77;5.17;;;21.00;52.90;;;;;;4933226;28;20478;-83
2023/06/07 05:50:35;;;;;;;5.67;5.20;;;20.90;53.00;;;;;;4902033;29;20470;-83
2023/06/07 05:53:03;;;;;;;6.00;5.47;;;20.80;53.20;;;;;;4915747;29;20479;-83
2023/06/07 05:55:30;;;;;;;5.60;5.10;;;20.80;53.60;;;;;;4924019;29;20473;-83
2023/06/07 05:58:00;;;;;;;6.23;5.63;;;20.90;53.20;;;;;;4933906;28;20954;-84
2023/06/07 06:00:27;;;;;;;9.67;5.30;;;20.90;53.10;;;;;;4923535;29;20466;-82
2023/06/07 06:02:53;;;;;;;6.10;5.60;;;21.00;53.00;;;;;;4914393;29;20462;-83
2023/06/07 06:05:23;;;;;;;6.60;5.87;;;21.00;52.80;;;;;;4931875;29;20469;-83
2023/06/07 06:07:50;;;;;;;6.63;4.57;;;21.20;52.60;;;;;;4935463;29;20474;-83
2023/06/07 06:10:18;;;;;;;5.97;5.40;;;21.30;52.50;;;;;;4921904;29;20979;-82
2023/06/07 06:12:46;;;;;;;8.13;5.17;;;21.40;52.30;;;;;;4932688;29;20809;-83
2023/06/07 06:15:12;;;;;;;5.10;4.60;;;21.60;51.90;;;;;;4944202;28;20494;-84
2023/06/07 06:17:39;;;;;;;5.43;4.93;;;21.50;51.80;;;;;;4924682;29;20479;-85
2023/06/07 06:20:08;;;;;;;5.53;5.03;;;21.20;51.80;;;;;;4933300;29;20446;-84
2023/06/07 06:22:35;;;;;;;6.00;5.40;;;21.20;52.30;;;;;;4924970;29;20518;-83
2023/06/07 06:25:02;;;;;;;6.00;5.40;;;21.20;52.30;;;;;;4919670;29;20447;-82
2023/06/07 06:27:32;;;;;;;5.20;4.70;;;21.30;52.80;;;;;;4929810;28;20471;-83
2023/06/07 06:29:59;;;;;;;5.30;4.90;;;21.30;52.30;;;;;;4912977;29;20526;-82
2023/06/07 06:32:26;;;;;;;6.90;5.00;;;21.50;52.50;;;;;;4918007;29;20451;-83
2023/06/07 06:34:53;;;;;;;6.80;4.63;;;21.70;52.00;;;;;;4902561;29;21019;-82
2023/06/07 06:37:20;;;;;;;6.10;4.83;;;21.70;51.90;;;;;;4931504;28;21476;-82
2023/06/07 06:39:48;;;;;;;9.50;4.40;;;21.80;51.40;;;;;;4930296;29;20465;-81
2023/06/07 06:42:15;;;;;;;8.83;4.50;;;21.90;51.10;;;;;;4914904;29;20550;-83
2023/06/07 06:45:12;;;;;;;7.13;5.10;;;22.00;51.30;;;;;;4904860;29;20485;-82
2023/06/07 06:47:41;;;;;;;5.57;5.07;;;22.20;51.20;;;;;;4921769;29;20483;-83
2023/06/07 06:50:09;;;;;;;5.50;4.60;;;22.40;50.80;;;;;;4932724;29;20882;-82
2023/06/07 06:52:35;;;;;;;5.50;5.00;;;22.40;50.60;;;;;;4933181;28;20882;-83
2023/06/07 06:55:03;;;;;;;5.67;4.53;;;22.60;50.40;;;;;;4902190;29;20474;-82
2023/06/07 06:57:30;;;;;;;5.50;5.00;;;22.60;50.30;;;;;;4920592;29;20475;-82
2023/06/07 06:59:59;;;;;;;5.30;4.90;;;22.50;50.20;;;;;;4920115;29;20839;-83
2023/06/07 07:02:27;;;;;;;8.07;5.20;;;22.60;49.70;;;;;;4921609;29;20473;-83
2023/06/07 07:04:57;;;;;;;6.57;4.83;;;22.50;50.10;;;;;;4906040;29;20461;-83
2023/06/07 07:07:26;;;;;;;7.93;5.30;;;22.50;50.90;;;;;;4928900;28;20475;-83
2023/06/07 07:09:53;;;;;;;6.83;5.20;;;22.70;50.20;;;;;;4913952;29;20486;-81
2023/06/07 07:12:21;;;;;;;6.37;5.10;;;22.70;49.90;;;;;;4900646;29;21015;-82
2023/06/07 07:14:48;;;;;;;6.57;5.37;;;22.70;50.20;;;;;;4918500;29;20859;-81
2023/06/07 07:17:15;;;;;;;6.30;4.80;;;22.80;49.90;;;;;;4918663;29;20485;-82
2023/06/07 07:19:43;;;;;;;8.87;5.50;;;23.00;49.90;;;;;;4930514;28;21047;-82
2023/06/07 07:22:10;;;;;;;10.20;6.00;;;23.00;49.80;;;;;;4914983;29;20470;-83
2023/06/07 07:24:37;;;;;;;7.53;5.30;;;23.00;49.40;;;;;;4922432;29;20513;-83
2023/06/07 07:27:05;;;;;;;4.70;4.30;;;22.80;51.20;;;;;;4928473;28;20482;-84
2023/06/07 07:29:32;;;;;;;6.83;5.80;;;23.00;50.30;;;;;;4904566;29;20484;-83
2023/06/07 07:32:02;;;;;;;10.73;6.27;;;23.30;49.80;;;;;;4919577;29;20459;-84
2023/06/07 07:34:31;;;;;;;6.33;4.90;;;23.30;49.70;;;;;;4913158;29;20466;-83
2023/06/07 07:37:07;;;;;;;10.93;5.30;;;23.40;49.60;;;;;;4898458;29;21079;-83
2023/06/07 07:39:41;;;;;;;5.70;5.20;;;23.60;49.30;;;;;;4909796;29;20458;-84
2023/06/07 07:42:08;;;;;;;7.17;5.77;;;23.70;49.50;;;;;;4916129;29;20510;-83
2023/06/07 07:44:36;;;;;;;13.70;6.00;;;23.80;49.50;;;;;;4920618;29;21984;-82
2023/06/07 07:47:05;;;;;;;10.10;5.87;;;23.90;49.70;;;;;;4915485;29;20469;-83
2023/06/07 07:49:32;;;;;;;12.13;5.50;;;24.30;49.40;;;;;;4930607;29;20451;-83
2023/06/07 07:52:00;;;;;;;6.00;5.03;;;24.60;48.20;;;;;;4916488;29;20509;-82
2023/06/07 07:54:28;;;;;;;6.97;5.90;;;24.70;48.20;;;;;;4922816;29;20482;-83
2023/06/07 07:56:55;;;;;;;6.20;5.53;;;24.40;48.70;;;;;;4921627;29;20564;-83
2023/06/07 07:59:22;;;;;;;7.13;6.37;;;24.50;48.80;;;;;;4922891;29;20463;-83
2023/06/07 08:01:51;;;;;;;7.23;6.60;;;24.70;49.00;;;;;;4917575;29;20996;-83
2023/06/07 08:04:18;;;;;;;8.03;6.10;;;24.80;47.70;;;;;;4927451;29;20494;-82
2023/06/07 08:06:45;;;;;;;7.67;6.10;;;24.60;48.50;;;;;;4930581;28;20466;-83
2023/06/07 08:09:14;;;;;;;8.10;5.97;;;24.60;48.90;;;;;;4918272;29;20459;-82
2023/06/07 08:11:41;;;;;;;5.73;5.13;;;24.70;48.70;;;;;;4929563;29;20550;-82
2023/06/07 08:14:08;;;;;;;10.33;6.23;;;24.70;48.70;;;;;;4930509;29;20577;-83
2023/06/07 08:16:34;;;;;;;6.30;5.70;;;24.80;48.80;;;;;;4930789;29;20471;-83
2023/06/07 08:19:03;;;;;;;8.60;6.23;;;24.90;48.80;;;;;;4940865;28;20447;-83
2023/06/07 08:21:29;;;;;;;9.73;6.50;;;24.90;48.70;;;;;;4921802;29;20466;-83
2023/06/07 08:23:56;;;;;;;7.33;6.30;;;24.70;48.20;;;;;;4920851;29;20466;-83
2023/06/07 08:26:25;;;;;;;10.27;7.30;;;24.50;49.30;;;;;;4923064;29;20485;-82
2023/06/07 08:28:52;;;;;;;7.00;6.30;;;24.70;49.40;;;;;;4912293;29;20461;-83
2023/06/07 08:31:19;;;;;;;8.17;6.80;;;24.90;49.80;;;;;;4931690;29;20451;-84
2023/06/07 08:33:47;;;;;;;7.33;6.63;;;24.90;48.80;;;;;;4933902;29;20478;-83
2023/06/07 08:36:15;;;;;;;9.17;6.90;;;24.80;48.70;;;;;;4916892;29;20566;-82
2023/06/07 08:38:42;;;;;;;7.60;6.90;;;24.90;48.80;;;;;;4931671;28;20468;-82
2023/06/07 08:41:09;;;;;;;8.07;6.77;;;25.00;49.10;;;;;;4934642;28;20536;-83
2023/06/07 08:43:38;;;;;;;12.23;6.70;;;25.00;48.80;;;;;;4921076;29;21072;-82
2023/06/07 08:46:05;;;;;;;7.60;6.90;;;25.00;49.00;;;;;;4931287;29;20454;-84
2023/06/07 08:48:33;;;;;;;7.80;6.83;;;25.10;48.80;;;;;;4922995;29;20455;-83
2023/06/07 08:51:02;;;;;;;8.57;7.67;;;25.20;48.40;;;;;;4931500;29;21168;-83
2023/06/07 08:53:38;;;;;;;8.53;7.63;;;25.30;48.40;;;;;;4922968;29;20475;-82
2023/06/07 08:56:06;;;;;;;8.77;7.43;;;25.40;48.30;;;;;;4916959;29;20462;-82
2023/06/07 08:58:34;;;;;;;9.10;7.47;;;25.30;47.90;;;;;;4930534;29;20458;-82
2023/06/07 09:01:03;;;;;;;15.83;8.23;;;25.40;48.60;;;;;;4940700;28;20457;-83
2023/06/07 09:03:30;;;;;;;8.03;7.23;;;25.40;48.40;;;;;;4904476;29;20458;-84
2023/06/07 09:05:57;;;;;;;7.30;6.60;;;25.20;49.10;;;;;;4918816;29;20533;-83
2023/06/07 09:08:24;;;;;;;8.10;7.30;;;24.90;49.50;;;;;;4921715;29;20451;-82
2023/06/07 09:10:51;;;;;;;8.57;7.00;;;25.00;49.60;;;;;;4931994;29;20482;-82
2023/06/07 09:13:19;;;;;;;8.47;7.57;;;25.00;49.80;;;;;;4933269;29;20446;-83
2023/06/07 09:15:48;;;;;;;8.40;7.40;;;25.10;49.60;;;;;;4942474;29;20491;-83
2023/06/07 09:18:17;;;;;;;7.80;7.10;;;25.30;49.30;;;;;;4903102;29;21008;-83
2023/06/07 09:20:44;;;;;;;8.13;7.43;;;25.20;48.80;;;;;;4917163;29;21482;-83
2023/06/07 09:23:14;;;;;;;8.93;7.23;;;25.40;48.40;;;;;;4931700;29;20458;-83
2023/06/07 09:25:44;;;;;;;8.60;7.33;;;25.60;48.50;;;;;;4925698;29;20435;-83
2023/06/07 09:28:13;;;;;;;7.73;6.90;;;25.70;48.00;;;;;;4935950;28;20481;-83
2023/06/07 09:30:54;;;;;;;8.80;7.57;;;25.90;48.90;;;;;;4909756;29;20951;-83
2023/06/07 09:33:29;;;;;;;7.00;6.30;;;26.10;48.00;;;;;;4910096;29;20841;-84
2023/06/07 09:36:06;;;;;;;8.90;7.40;;;26.20;47.40;;;;;;4908268;28;20466;-83
2023/06/07 09:38:33;;;;;;;9.30;7.50;;;26.30;46.80;;;;;;4932321;28;20461;-84
2023/06/07 09:41:02;;;;;;;6.77;6.17;;;26.20;46.80;;;;;;4915692;29;20512;-84
2023/06/07 09:43:41;;;;;;;7.17;6.47;;;26.20;47.20;;;;;;4935106;28;20453;-82
2023/06/07 09:46:09;;;;;;;6.87;6.27;;;26.30;46.60;;;;;;4932658;28;20454;-88
2023/06/07 09:48:46;;;;;;;6.90;6.17;;;26.10;46.20;;;;;;4934148;29;20509;-83
2023/06/07 09:51:13;;;;;;;6.53;5.83;;;26.30;47.70;;;;;;4934609;28;20955;-83
2023/06/07 09:53:51;;;;;;;7.43;6.70;;;26.50;46.50;;;;;;4908191;29;20475;-83
2023/06/07 09:56:18;;;;;;;7.20;6.60;;;26.30;46.50;;;;;;4919510;29;20489;-83
2023/06/07 09:58:49;;;;;;;6.53;5.90;;;26.50;46.50;;;;;;4925146;29;20541;-84
2023/06/07 10:01:31;;;;;;;6.50;5.90;;;26.50;46.00;;;;;;4919409;29;20454;-83
2023/06/07 10:04:01;;;;;;;10.80;5.90;;;26.60;45.80;;;;;;4949017;28;20459;-83
2023/06/07 10:06:30;;;;;;;6.27;5.70;;;26.90;45.90;;;;;;4933706;29;20578;-82
2023/06/07 10:09:00;;;;;;;6.63;6.03;;;26.80;45.30;;;;;;4920124;29;20444;-83
2023/06/07 10:11:29;;;;;;;6.47;5.83;;;26.70;45.60;;;;;;4920171;29;20481;-83
2023/06/07 10:13:57;;;;;;;6.43;5.93;;;26.60;45.90;;;;;;4923685;29;20521;-83
2023/06/07 10:16:26;;;;;;;5.90;4.73;;;26.20;46.30;;;;;;4934482;28;20538;-84
2023/06/07 10:18:56;;;;;;;5.50;5.03;;;26.20;46.00;;;;;;4923343;29;20458;-84
2023/06/07 10:21:25;;;;;;;5.67;4.60;;;26.70;46.70;;;;;;4933628;28;20467;-83
2023/06/07 10:23:57;;;;;;;5.87;5.17;;;27.10;45.20;;;;;;4907677;29;20454;-84
2023/06/07 10:26:32;;;;;;;5.00;4.60;;;27.60;44.90;;;;;;4919105;29;21018;-82
2023/06/07 10:29:07;;;;;;;6.00;5.47;;;27.80;44.60;;;;;;4934405;29;21188;-83
2023/06/07 10:31:42;;;;;;;6.97;6.30;;;27.70;44.00;;;;;;4935700;29;20482;-82
2023/06/07 10:34:11;;;;;;;6.63;6.10;;;27.80;45.00;;;;;;4921703;29;20571;-84
2023/06/07 10:36:40;;;;;;;5.60;5.10;;;28.00;43.60;;;;;;4908017;29;20487;-83
2023/06/07 10:39:07;;;;;;;7.03;6.33;;;28.00;43.60;;;;;;4931071;29;20457;-83
2023/06/07 10:41:36;;;;;;;5.03;4.63;;;28.00;44.10;;;;;;4930884;29;20462;-83
2023/06/07 10:44:03;;;;;;;5.10;4.70;;;28.20;43.50;;;;;;4904000;29;20459;-83
2023/06/07 10:46:30;;;;;;;5.10;4.70;;;28.40;41.40;;;;;;4907283;29;20481;-84
2023/06/07 10:48:58;;;;;;;5.90;4.90;;;28.50;42.50;;;;;;4923916;29;20458;-83
2023/06/07 10:52:04;;;;;;;6.17;5.00;;;28.70;42.20;;;;;;4942355;29;21220;-83
2023/06/07 10:54:31;;;;;;;6.13;5.60;;;28.40;42.50;;;;;;4936021;29;20469;-83
2023/06/07 10:57:00;;;;;;;5.97;5.40;;;28.30;42.40;;;;;;4931253;29;20483;-84
2023/06/07 10:59:27;;;;;;;6.67;5.37;;;28.10;42.90;;;;;;4925019;29;21229;-84
2023/06/07 11:02:14;;;;;;;5.47;5.07;;;28.00;43.30;;;;;;4924364;29;20454;-83
2023/06/07 11:04:59;;;;;;;5.70;5.20;;;27.80;43.50;;;;;;4919032;29;21216;-82
2023/06/07 11:07:30;;;;;;;5.30;4.90;;;27.50;43.80;;;;;;4916322;29;20509;-84
2023/06/07 11:10:33;;;;;;;5.10;4.60;;;27.60;43.90;;;;;;4917471;29;20468;-83
2023/06/07 11:13:00;;;;;;;6.07;4.80;;;28.00;43.80;;;;;;4931983;29;20892;-83
2023/06/07 11:15:35;;;;;;;5.50;4.80;;;28.20;42.60;;;;;;4919147;29;21074;-83
2023/06/07 11:18:04;;;;;;;4.93;4.60;;;28.30;42.30;;;;;;4931686;28;20476;-83
2023/06/07 11:20:53;;;;;;;5.40;5.00;;;28.50;41.60;;;;;;4919335;29;20465;-84
2023/06/07 11:23:26;;;;;;;6.20;5.10;;;28.40;42.80;;;;;;4922399;29;20470;-84
2023/06/07 11:25:56;;;;;;;5.60;5.10;;;28.50;42.00;;;;;;4914233;29;20439;-84
2023/06/07 11:28:23;;;;;;;5.80;5.30;;;28.70;42.80;;;;;;4933695;29;20455;-83
2023/06/07 11:30:51;;;;;;;5.80;5.20;;;29.10;41.60;;;;;;4929717;28;20465;-83
2023/06/07 11:33:19;;;;;;;5.67;5.27;;;29.20;40.80;;;;;;4899165;29;20480;-83
2023/06/07 11:35:46;;;;;;;5.10;4.60;;;29.40;40.00;;;;;;4915176;29;20545;-84
2023/06/07 11:38:12;;;;;;;5.20;4.60;;;29.50;41.00;;;;;;4922078;29;20481;-85
2023/06/07 11:40:42;;;;;;;5.30;4.90;;;29.60;39.10;;;;;;4932066;29;20454;-82
2023/06/07 11:43:11;;;;;;;5.90;5.40;;;29.70;39.90;;;;;;4906390;29;21943;-84
2023/06/07 11:45:40;;;;;;;5.23;4.73;;;29.60;39.20;;;;;;4918044;29;20461;-83
2023/06/07 11:48:07;;;;;;;4.90;4.50;;;29.50;40.00;;;;;;4938139;28;20480;-83
2023/06/07 11:50:36;;;;;;;5.10;4.70;;;29.50;39.60;;;;;;4920159;29;20462;-84
2023/06/07 11:53:03;;;;;;;5.23;4.83;;;29.50;40.10;;;;;;4923266;29;20489;-83
2023/06/07 11:55:30;;;;;;;5.20;4.80;;;29.90;39.30;;;;;;4932646;29;20475;-84
2023/06/07 11:58:01;;;;;;;4.83;4.43;;;30.20;38.80;;;;;;4914998;29;21071;-84
2023/06/07 12:00:31;;;;;;;4.53;4.03;;;30.20;37.60;;;;;;4931291;29;20466;-83
2023/06/07 12:02:58;;;;;;;4.40;4.10;;;29.90;37.40;;;;;;4930657;29;20454;-83
2023/06/07 12:05:30;;;;;;;5.60;5.10;;;29.20;38.20;;;;;;4942114;28;20455;-83
2023/06/07 12:07:59;;;;;;;5.40;4.90;;;28.80;39.60;;;;;;4917292;29;20468;-83
2023/06/07 12:10:27;;;;;;;5.13;4.73;;;28.80;40.20;;;;;;4937800;29;20450;-84
2023/06/07 12:13:13;;;;;;;5.07;4.67;;;28.90;40.80;;;;;;4923089;29;20509;-83
2023/06/07 12:15:44;;;;;;;5.13;4.60;;;29.20;40.50;;;;;;4931483;28;20562;-84
2023/06/07 12:18:13;;;;;;;5.13;4.33;;;29.20;39.20;;;;;;4930457;29;20466;-84
2023/06/07 12:20:40;;;;;;;5.10;4.67;;;29.20;38.90;;;;;;4932653;29;20435;-84
2023/06/07 12:23:07;;;;;;;5.97;4.63;;;29.10;38.80;;;;;;4934926;29;20454;-83
2023/06/07 12:25:35;;;;;;;5.20;4.60;;;29.00;39.50;;;;;;4909039;29;20465;-83
2023/06/07 12:28:06;;;;;;;4.33;4.03;;;29.00;39.30;;;;;;4921501;29;20478;-83
2023/06/07 12:30:37;;;;;;;5.00;4.50;;;29.00;39.50;;;;;;4938012;29;20920;-83
2023/06/07 12:33:04;;;;;;;4.63;4.20;;;29.00;39.70;;;;;;4946224;28;20489;-84
2023/06/07 12:35:38;;;;;;;3.97;3.73;;;29.10;38.60;;;;;;4924040;29;20475;-83
2023/06/07 12:38:05;;;;;;;4.50;4.13;;;29.10;39.10;;;;;;4924862;29;22545;-84
2023/06/07 12:40:34;;;;;;;5.57;5.10;;;29.00;39.00;;;;;;4936074;29;20521;-84
2023/06/07 12:43:01;;;;;;;4.90;4.50;;;28.80;38.80;;;;;;4917853;29;20445;-84
2023/06/07 12:45:28;;;;;;;5.47;4.97;;;28.70;38.70;;;;;;4926374;29;20518;-84
2023/06/07 12:47:56;;;;;;;4.23;3.93;;;28.50;39.90;;;;;;4933055;28;20478;-84
2023/06/07 12:50:23;;;;;;;5.40;4.90;;;28.40;39.40;;;;;;4926239;29;20458;-84
2023/06/07 12:52:51;;;;;;;5.00;4.40;;;28.80;39.50;;;;;;4918107;29;20465;-84
2023/06/07 12:55:18;;;;;;;4.80;4.40;;;28.90;37.40;;;;;;4935219;29;21122;-84